sensor_id;sensor_type;location;lat;lon;timestamp;temperature;humidity
25616;DHT22;13482;48.234;13.006;2023-04-16T00:00:27;10.20;77.80
25616;DHT22;13482;48.234;13.006;2023-04-16T00:02:55;10.20;77.80
25616;DHT22;13482;48.234;13.006;2023-04-16T00:05:22;10.20;77.80
25616;DHT22;13482;48.234;13.006;2023-04-16T00:07:49;10.20;77.80
25616;DHT22;13482;48.234;13.006;2023-04-16T00:10:17;10.30;77.80
25616;DHT22;13482;48.234;13.006;2023-04-16T00:12:44;10.30;77.80
25616;DHT22;13482;48.234;13.006;2023-04-16T00:15:11;10.30;77.70
25616;DHT22;13482;48.234;13.006;2023-04-16T00:17:39;10.30;77.70
25616;DHT22;13482;48.234;13.006;2023-04-16T00:20:06;10.40;77.70
25616;DHT22;13482;48.234;13.006;2023-04-16T00:22:35;10.40;77.60
25616;DHT22;13482;48.234;13.006;2023-04-16T00:25:02;10.40;77.60
25616;DHT22;13482;48.234;13.006;2023-04-16T00:27:29;10.40;77.60
25616;DHT22;13482;48.234;13.006;2023-04-16T00:29:56;10.40;77.60
25616;DHT22;13482;48.234;13.006;2023-04-16T00:32:23;10.40;77.50
25616;DHT22;13482;48.234;13.006;2023-04-16T00:34:51;10.50;77.50
25616;DHT22;13482;48.234;13.006;2023-04-16T00:37:18;10.50;77.40
25616;DHT22;13482;48.234;13.006;2023-04-16T00:39:45;10.50;77.30
25616;DHT22;13482;48.234;13.006;2023-04-16T00:42:12;10.40;77.30
25616;DHT22;13482;48.234;13.006;2023-04-16T00:47:19;10.40;77.30
25616;DHT22;13482;48.234;13.006;2023-04-16T00:49:47;10.30;77.30
25616;DHT22;13482;48.234;13.006;2023-04-16T00:52:14;10.30;77.30
25616;DHT22;13482;48.234;13.006;2023-04-16T00:54:42;10.20;77.30
25616;DHT22;13482;48.234;13.006;2023-04-16T00:57:09;10.20;77.40
25616;DHT22;13482;48.234;13.006;2023-04-16T00:59:40;10.20;77.40
25616;DHT22;13482;48.234;13.006;2023-04-16T01:02:07;10.20;77.40
25616;DHT22;13482;48.234;13.006;2023-04-16T01:04:34;10.10;77.50
25616;DHT22;13482;48.234;13.006;2023-04-16T01:07:02;10.10;77.50
25616;DHT22;13482;48.234;13.006;2023-04-16T01:09:29;10.10;77.60
25616;DHT22;13482;48.234;13.006;2023-04-16T01:11:56;10.10;77.70
25616;DHT22;13482;48.234;13.006;2023-04-16T01:14:23;10.00;77.70
25616;DHT22;13482;48.234;13.006;2023-04-16T01:16:50;10.00;77.70
25616;DHT22;13482;48.234;13.006;2023-04-16T01:19:17;10.00;77.80
25616;DHT22;13482;48.234;13.006;2023-04-16T01:21:44;10.00;77.80
25616;DHT22;13482;48.234;13.006;2023-04-16T01:24:12;10.00;77.90
25616;DHT22;13482;48.234;13.006;2023-04-16T01:26:39;10.00;77.90
25616;DHT22;13482;48.234;13.006;2023-04-16T01:29:07;10.00;77.90
25616;DHT22;13482;48.234;13.006;2023-04-16T01:31:34;10.00;77.90
25616;DHT22;13482;48.234;13.006;2023-04-16T01:34:02;10.00;77.90
25616;DHT22;13482;48.234;13.006;2023-04-16T01:36:29;10.00;78.00
25616;DHT22;13482;48.234;13.006;2023-04-16T01:38:56;10.00;78.00
25616;DHT22;13482;48.234;13.006;2023-04-16T01:41:23;10.00;78.00
25616;DHT22;13482;48.234;13.006;2023-04-16T01:43:51;10.00;78.00
25616;DHT22;13482;48.234;13.006;2023-04-16T01:46:22;10.10;78.20
25616;DHT22;13482;48.234;13.006;2023-04-16T01:48:53;10.10;78.20
25616;DHT22;13482;48.234;13.006;2023-04-16T01:51:21;10.10;78.20
25616;DHT22;13482;48.234;13.006;2023-04-16T01:53:48;10.10;78.20
25616;DHT22;13482;48.234;13.006;2023-04-16T01:56:16;10.10;78.20
25616;DHT22;13482;48.234;13.006;2023-04-16T01:58:43;10.10;78.10
25616;DHT22;13482;48.234;13.006;2023-04-16T02:01:12;10.10;78.00
25616;DHT22;13482;48.234;13.006;2023-04-16T02:03:39;10.20;78.10
25616;DHT22;13482;48.234;13.006;2023-04-16T02:06:07;10.20;78.00
25616;DHT22;13482;48.234;13.006;2023-04-16T02:08:34;10.20;78.00
25616;DHT22;13482;48.234;13.006;2023-04-16T02:11:01;10.20;78.00
25616;DHT22;13482;48.234;13.006;2023-04-16T02:13:29;10.20;78.00
25616;DHT22;13482;48.234;13.006;2023-04-16T02:15:56;10.20;78.00
25616;DHT22;13482;48.234;13.006;2023-04-16T02:18:23;10.20;78.00
25616;DHT22;13482;48.234;13.006;2023-04-16T02:20:50;10.20;77.90
25616;DHT22;13482;48.234;13.006;2023-04-16T02:23:17;10.20;77.90
25616;DHT22;13482;48.234;13.006;2023-04-16T02:25:46;10.30;77.90
25616;DHT22;13482;48.234;13.006;2023-04-16T02:28:15;10.30;77.90
25616;DHT22;13482;48.234;13.006;2023-04-16T02:30:43;10.30;77.90
25616;DHT22;13482;48.234;13.006;2023-04-16T02:33:11;10.20;77.90
25616;DHT22;13482;48.234;13.006;2023-04-16T02:35:39;10.20;78.00
25616;DHT22;13482;48.234;13.006;2023-04-16T02:38:06;10.20;77.90
25616;DHT22;13482;48.234;13.006;2023-04-16T02:40:34;10.20;77.90
25616;DHT22;13482;48.234;13.006;2023-04-16T02:43:01;10.10;78.10
25616;DHT22;13482;48.234;13.006;2023-04-16T02:45:28;10.10;78.00
25616;DHT22;13482;48.234;13.006;2023-04-16T02:47:57;10.10;78.00
25616;DHT22;13482;48.234;13.006;2023-04-16T02:50:25;10.10;78.20
25616;DHT22;13482;48.234;13.006;2023-04-16T02:52:52;10.10;78.20
25616;DHT22;13482;48.234;13.006;2023-04-16T02:55:20;10.10;78.20
25616;DHT22;13482;48.234;13.006;2023-04-16T02:57:47;10.00;78.20
25616;DHT22;13482;48.234;13.006;2023-04-16T03:00:14;10.00;78.20
25616;DHT22;13482;48.234;13.006;2023-04-16T03:02:41;10.00;78.20
25616;DHT22;13482;48.234;13.006;2023-04-16T03:05:09;10.00;78.20
25616;DHT22;13482;48.234;13.006;2023-04-16T03:07:36;9.90;78.20
25616;DHT22;13482;48.234;13.006;2023-04-16T03:10:05;9.90;78.20
25616;DHT22;13482;48.234;13.006;2023-04-16T03:12:33;9.90;78.30
25616;DHT22;13482;48.234;13.006;2023-04-16T03:15:01;9.90;78.30
25616;DHT22;13482;48.234;13.006;2023-04-16T03:17:29;9.80;78.30
25616;DHT22;13482;48.234;13.006;2023-04-16T03:19:56;9.80;78.30
25616;DHT22;13482;48.234;13.006;2023-04-16T03:22:23;9.80;78.30
25616;DHT22;13482;48.234;13.006;2023-04-16T03:24:50;9.80;78.40
25616;DHT22;13482;48.234;13.006;2023-04-16T03:27:17;9.70;78.40
25616;DHT22;13482;48.234;13.006;2023-04-16T03:29:44;9.70;78.50
25616;DHT22;13482;48.234;13.006;2023-04-16T03:32:12;9.70;78.50
25616;DHT22;13482;48.234;13.006;2023-04-16T03:34:39;9.70;78.50
25616;DHT22;13482;48.234;13.006;2023-04-16T03:37:06;9.70;78.50
25616;DHT22;13482;48.234;13.006;2023-04-16T03:39:37;9.70;78.50
25616;DHT22;13482;48.234;13.006;2023-04-16T03:42:04;9.70;78.40
25616;DHT22;13482;48.234;13.006;2023-04-16T03:44:32;9.70;78.50
25616;DHT22;13482;48.234;13.006;2023-04-16T03:46:59;9.70;78.50
25616;DHT22;13482;48.234;13.006;2023-04-16T03:49:26;9.70;78.50
25616;DHT22;13482;48.234;13.006;2023-04-16T03:51:53;9.60;78.40
25616;DHT22;13482;48.234;13.006;2023-04-16T03:54:21;9.60;78.50
25616;DHT22;13482;48.234;13.006;2023-04-16T03:56:48;9.60;78.50
25616;DHT22;13482;48.234;13.006;2023-04-16T03:59:16;9.60;78.40
25616;DHT22;13482;48.234;13.006;2023-04-16T04:01:43;9.60;78.40
25616;DHT22;13482;48.234;13.006;2023-04-16T04:04:10;9.60;78.40
25616;DHT22;13482;48.234;13.006;2023-04-16T04:06:37;9.60;78.50
25616;DHT22;13482;48.234;13.006;2023-04-16T04:09:04;9.60;78.40
25616;DHT22;13482;48.234;13.006;2023-04-16T04:11:32;9.60;78.40
25616;DHT22;13482;48.234;13.006;2023-04-16T04:13:59;9.60;78.40
25616;DHT22;13482;48.234;13.006;2023-04-16T04:16:26;9.60;78.40
25616;DHT22;13482;48.234;13.006;2023-04-16T04:18:53;9.70;78.30
25616;DHT22;13482;48.234;13.006;2023-04-16T04:21:21;9.60;78.30
25616;DHT22;13482;48.234;13.006;2023-04-16T04:23:48;9.70;78.30
25616;DHT22;13482;48.234;13.006;2023-04-16T04:26:16;9.60;78.30
25616;DHT22;13482;48.234;13.006;2023-04-16T04:28:43;9.60;78.30
25616;DHT22;13482;48.234;13.006;2023-04-16T04:31:10;9.60;78.30
25616;DHT22;13482;48.234;13.006;2023-04-16T04:33:37;9.60;78.30
25616;DHT22;13482;48.234;13.006;2023-04-16T04:36:05;9.60;78.20
25616;DHT22;13482;48.234;13.006;2023-04-16T04:38:32;9.60;78.20
25616;DHT22;13482;48.234;13.006;2023-04-16T04:40:59;9.60;78.30
25616;DHT22;13482;48.234;13.006;2023-04-16T04:43:27;9.60;78.30
25616;DHT22;13482;48.234;13.006;2023-04-16T04:45:54;9.60;78.30
25616;DHT22;13482;48.234;13.006;2023-04-16T04:48:21;9.60;78.30
25616;DHT22;13482;48.234;13.006;2023-04-16T04:50:52;9.60;78.30
25616;DHT22;13482;48.234;13.006;2023-04-16T04:53:19;9.60;78.30
25616;DHT22;13482;48.234;13.006;2023-04-16T04:55:46;9.60;78.20
25616;DHT22;13482;48.234;13.006;2023-04-16T04:58:19;9.60;78.30
25616;DHT22;13482;48.234;13.006;2023-04-16T05:00:46;9.60;78.20
25616;DHT22;13482;48.234;13.006;2023-04-16T05:03:18;9.60;78.30
25616;DHT22;13482;48.234;13.006;2023-04-16T05:05:49;9.60;78.30
25616;DHT22;13482;48.234;13.006;2023-04-16T05:08:16;9.50;78.30
25616;DHT22;13482;48.234;13.006;2023-04-16T05:10:43;9.60;78.30
25616;DHT22;13482;48.234;13.006;2023-04-16T05:13:10;9.60;78.40
25616;DHT22;13482;48.234;13.006;2023-04-16T05:15:38;9.60;78.40
25616;DHT22;13482;48.234;13.006;2023-04-16T05:18:05;9.60;78.40
25616;DHT22;13482;48.234;13.006;2023-04-16T05:20:32;9.60;78.40
25616;DHT22;13482;48.234;13.006;2023-04-16T05:22:59;9.60;78.40
25616;DHT22;13482;48.234;13.006;2023-04-16T05:25:26;9.60;78.40
25616;DHT22;13482;48.234;13.006;2023-04-16T05:27:53;9.60;78.40
25616;DHT22;13482;48.234;13.006;2023-04-16T05:30:21;9.60;78.40
25616;DHT22;13482;48.234;13.006;2023-04-16T05:32:48;9.70;78.40
25616;DHT22;13482;48.234;13.006;2023-04-16T05:35:15;9.60;78.40
25616;DHT22;13482;48.234;13.006;2023-04-16T05:37:43;9.70;78.30
25616;DHT22;13482;48.234;13.006;2023-04-16T05:40:12;9.70;78.40
25616;DHT22;13482;48.234;13.006;2023-04-16T05:42:39;9.70;78.40
25616;DHT22;13482;48.234;13.006;2023-04-16T05:45:07;9.70;78.40
25616;DHT22;13482;48.234;13.006;2023-04-16T05:47:34;9.70;78.50
25616;DHT22;13482;48.234;13.006;2023-04-16T05:50:02;9.70;78.50
25616;DHT22;13482;48.234;13.006;2023-04-16T05:52:29;9.70;78.60
25616;DHT22;13482;48.234;13.006;2023-04-16T05:54:56;9.70;78.60
25616;DHT22;13482;48.234;13.006;2023-04-16T05:57:28;9.80;78.80
25616;DHT22;13482;48.234;13.006;2023-04-16T05:59:56;9.80;78.70
25616;DHT22;13482;48.234;13.006;2023-04-16T06:02:23;9.80;78.50
25616;DHT22;13482;48.234;13.006;2023-04-16T06:04:50;9.80;78.60
25616;DHT22;13482;48.234;13.006;2023-04-16T06:07:17;9.80;78.60
25616;DHT22;13482;48.234;13.006;2023-04-16T06:09:44;9.80;78.70
25616;DHT22;13482;48.234;13.006;2023-04-16T06:12:11;9.90;78.70
25616;DHT22;13482;48.234;13.006;2023-04-16T06:14:39;9.90;78.70
25616;DHT22;13482;48.234;13.006;2023-04-16T06:17:06;9.90;78.70
25616;DHT22;13482;48.234;13.006;2023-04-16T06:19:33;9.90;78.70
25616;DHT22;13482;48.234;13.006;2023-04-16T06:22:00;9.90;78.80
25616;DHT22;13482;48.234;13.006;2023-04-16T06:24:27;10.00;78.90
25616;DHT22;13482;48.234;13.006;2023-04-16T06:26:54;10.00;78.90
25616;DHT22;13482;48.234;13.006;2023-04-16T06:29:23;10.10;79.00
25616;DHT22;13482;48.234;13.006;2023-04-16T06:32:06;10.10;79.00
25616;DHT22;13482;48.234;13.006;2023-04-16T06:34:33;10.10;79.00
25616;DHT22;13482;48.234;13.006;2023-04-16T06:37:01;10.20;79.00
25616;DHT22;13482;48.234;13.006;2023-04-16T06:39:29;10.20;79.00
25616;DHT22;13482;48.234;13.006;2023-04-16T06:41:56;10.30;78.80
25616;DHT22;13482;48.234;13.006;2023-04-16T06:44:23;10.30;78.70
25616;DHT22;13482;48.234;13.006;2023-04-16T06:46:51;10.30;78.80
25616;DHT22;13482;48.234;13.006;2023-04-16T06:49:20;10.40;78.80
25616;DHT22;13482;48.234;13.006;2023-04-16T06:51:47;10.40;78.70
25616;DHT22;13482;48.234;13.006;2023-04-16T06:54:14;10.50;78.50
25616;DHT22;13482;48.234;13.006;2023-04-16T06:56:42;10.50;78.50
25616;DHT22;13482;48.234;13.006;2023-04-16T06:59:09;10.50;78.40
25616;DHT22;13482;48.234;13.006;2023-04-16T07:01:37;10.50;78.20
25616;DHT22;13482;48.234;13.006;2023-04-16T07:04:04;10.50;78.10
25616;DHT22;13482;48.234;13.006;2023-04-16T07:06:31;10.50;77.90
25616;DHT22;13482;48.234;13.006;2023-04-16T07:08:58;10.50;78.00
25616;DHT22;13482;48.234;13.006;2023-04-16T07:11:26;10.50;78.10
25616;DHT22;13482;48.234;13.006;2023-04-16T07:13:53;10.50;78.00
25616;DHT22;13482;48.234;13.006;2023-04-16T07:16:20;10.50;78.00
25616;DHT22;13482;48.234;13.006;2023-04-16T07:18:47;10.50;78.00
25616;DHT22;13482;48.234;13.006;2023-04-16T07:21:14;10.50;78.00
25616;DHT22;13482;48.234;13.006;2023-04-16T07:23:42;10.50;78.00
25616;DHT22;13482;48.234;13.006;2023-04-16T07:26:09;10.50;78.10
25616;DHT22;13482;48.234;13.006;2023-04-16T07:28:37;10.50;78.10
25616;DHT22;13482;48.234;13.006;2023-04-16T07:31:07;10.50;78.00
25616;DHT22;13482;48.234;13.006;2023-04-16T07:33:34;10.60;78.00
25616;DHT22;13482;48.234;13.006;2023-04-16T07:36:01;10.60;78.00
25616;DHT22;13482;48.234;13.006;2023-04-16T07:38:28;10.60;77.90
25616;DHT22;13482;48.234;13.006;2023-04-16T07:40:55;10.60;77.90
25616;DHT22;13482;48.234;13.006;2023-04-16T07:43:22;10.60;78.00
25616;DHT22;13482;48.234;13.006;2023-04-16T07:45:49;10.70;77.90
25616;DHT22;13482;48.234;13.006;2023-04-16T07:48:17;10.70;77.90
25616;DHT22;13482;48.234;13.006;2023-04-16T07:50:44;10.70;78.00
25616;DHT22;13482;48.234;13.006;2023-04-16T07:53:11;10.70;78.20
25616;DHT22;13482;48.234;13.006;2023-04-16T07:55:40;10.80;78.20
25616;DHT22;13482;48.234;13.006;2023-04-16T07:58:07;10.80;78.10
25616;DHT22;13482;48.234;13.006;2023-04-16T08:00:35;10.80;78.00
25616;DHT22;13482;48.234;13.006;2023-04-16T08:03:03;10.80;78.00
25616;DHT22;13482;48.234;13.006;2023-04-16T08:05:30;10.90;78.00
25616;DHT22;13482;48.234;13.006;2023-04-16T08:07:57;10.90;78.20
25616;DHT22;13482;48.234;13.006;2023-04-16T08:10:24;11.00;78.10
25616;DHT22;13482;48.234;13.006;2023-04-16T08:12:52;11.00;78.20
25616;DHT22;13482;48.234;13.006;2023-04-16T08:15:19;11.10;78.20
25616;DHT22;13482;48.234;13.006;2023-04-16T08:17:46;11.10;78.40
25616;DHT22;13482;48.234;13.006;2023-04-16T08:20:14;11.20;78.40
25616;DHT22;13482;48.234;13.006;2023-04-16T08:22:45;11.30;78.50
25616;DHT22;13482;48.234;13.006;2023-04-16T08:25:12;11.40;78.70
25616;DHT22;13482;48.234;13.006;2023-04-16T08:27:40;11.50;78.80
25616;DHT22;13482;48.234;13.006;2023-04-16T08:30:07;11.60;78.70
25616;DHT22;13482;48.234;13.006;2023-04-16T08:32:34;11.70;78.60
25616;DHT22;13482;48.234;13.006;2023-04-16T08:35:01;11.80;78.40
25616;DHT22;13482;48.234;13.006;2023-04-16T08:37:29;11.90;78.10
25616;DHT22;13482;48.234;13.006;2023-04-16T08:39:56;12.00;78.00
25616;DHT22;13482;48.234;13.006;2023-04-16T08:42:32;12.10;78.10
25616;DHT22;13482;48.234;13.006;2023-04-16T08:45:07;12.20;78.10
25616;DHT22;13482;48.234;13.006;2023-04-16T08:47:36;12.20;77.80
25616;DHT22;13482;48.234;13.006;2023-04-16T08:50:04;12.30;77.50
25616;DHT22;13482;48.234;13.006;2023-04-16T08:52:33;12.30;77.30
25616;DHT22;13482;48.234;13.006;2023-04-16T08:55:08;12.30;77.00
25616;DHT22;13482;48.234;13.006;2023-04-16T08:58:05;12.40;76.90
25616;DHT22;13482;48.234;13.006;2023-04-16T09:00:30;12.40;76.80
25616;DHT22;13482;48.234;13.006;2023-04-16T09:02:58;12.40;76.40
25616;DHT22;13482;48.234;13.006;2023-04-16T09:05:26;12.40;76.40
25616;DHT22;13482;48.234;13.006;2023-04-16T09:07:55;12.40;76.30
25616;DHT22;13482;48.234;13.006;2023-04-16T09:10:22;12.40;76.60
25616;DHT22;13482;48.234;13.006;2023-04-16T09:12:55;12.40;76.80
25616;DHT22;13482;48.234;13.006;2023-04-16T09:15:24;12.40;76.90
25616;DHT22;13482;48.234;13.006;2023-04-16T09:17:51;12.40;77.00
25616;DHT22;13482;48.234;13.006;2023-04-16T09:20:19;12.50;76.90
25616;DHT22;13482;48.234;13.006;2023-04-16T09:22:46;12.50;77.00
25616;DHT22;13482;48.234;13.006;2023-04-16T09:25:14;12.60;76.90
25616;DHT22;13482;48.234;13.006;2023-04-16T09:27:42;12.60;76.80
25616;DHT22;13482;48.234;13.006;2023-04-16T09:30:23;12.70;76.70
25616;DHT22;13482;48.234;13.006;2023-04-16T09:33:10;12.70;76.40
25616;DHT22;13482;48.234;13.006;2023-04-16T09:35:48;12.80;76.60
25616;DHT22;13482;48.234;13.006;2023-04-16T09:38:17;12.80;76.60
25616;DHT22;13482;48.234;13.006;2023-04-16T09:40:45;12.90;76.60
25616;DHT22;13482;48.234;13.006;2023-04-16T09:43:17;12.90;76.90
25616;DHT22;13482;48.234;13.006;2023-04-16T09:45:53;13.00;76.90
25616;DHT22;13482;48.234;13.006;2023-04-16T09:48:31;13.10;76.60
25616;DHT22;13482;48.234;13.006;2023-04-16T09:50:59;13.20;76.50
25616;DHT22;13482;48.234;13.006;2023-04-16T09:53:31;13.30;76.60
25616;DHT22;13482;48.234;13.006;2023-04-16T09:56:04;13.40;76.40
25616;DHT22;13482;48.234;13.006;2023-04-16T09:58:35;13.40;76.50
25616;DHT22;13482;48.234;13.006;2023-04-16T10:01:09;13.50;76.50
25616;DHT22;13482;48.234;13.006;2023-04-16T10:03:39;13.60;76.50
25616;DHT22;13482;48.234;13.006;2023-04-16T10:08:48;13.70;76.60
25616;DHT22;13482;48.234;13.006;2023-04-16T10:11:17;13.80;76.30
25616;DHT22;13482;48.234;13.006;2023-04-16T10:13:44;13.90;76.20
25616;DHT22;13482;48.234;13.006;2023-04-16T10:16:12;13.90;76.00
25616;DHT22;13482;48.234;13.006;2023-04-16T10:18:44;14.00;75.80
25616;DHT22;13482;48.234;13.006;2023-04-16T10:21:12;14.10;75.40
25616;DHT22;13482;48.234;13.006;2023-04-16T10:23:42;14.10;75.20
25616;DHT22;13482;48.234;13.006;2023-04-16T10:26:09;14.10;75.10
25616;DHT22;13482;48.234;13.006;2023-04-16T10:28:37;14.10;74.90
25616;DHT22;13482;48.234;13.006;2023-04-16T10:31:07;14.10;74.40
25616;DHT22;13482;48.234;13.006;2023-04-16T10:33:38;14.20;74.20
25616;DHT22;13482;48.234;13.006;2023-04-16T10:36:14;14.10;74.20
25616;DHT22;13482;48.234;13.006;2023-04-16T10:38:56;14.20;74.50
25616;DHT22;13482;48.234;13.006;2023-04-16T10:41:25;14.10;74.50
25616;DHT22;13482;48.234;13.006;2023-04-16T10:44:06;14.10;74.40
25616;DHT22;13482;48.234;13.006;2023-04-16T10:46:39;14.10;74.40
25616;DHT22;13482;48.234;13.006;2023-04-16T10:49:13;14.10;74.40
25616;DHT22;13482;48.234;13.006;2023-04-16T10:51:42;14.10;74.00
25616;DHT22;13482;48.234;13.006;2023-04-16T10:54:37;14.10;74.20
25616;DHT22;13482;48.234;13.006;2023-04-16T10:57:14;14.10;73.80
25616;DHT22;13482;48.234;13.006;2023-04-16T10:59:44;14.20;74.60
25616;DHT22;13482;48.234;13.006;2023-04-16T11:02:16;14.20;74.90
25616;DHT22;13482;48.234;13.006;2023-04-16T11:04:46;14.20;74.50
25616;DHT22;13482;48.234;13.006;2023-04-16T11:07:21;14.30;74.60
25616;DHT22;13482;48.234;13.006;2023-04-16T11:10:11;14.40;74.70
25616;DHT22;13482;48.234;13.006;2023-04-16T11:12:48;14.40;74.00
25616;DHT22;13482;48.234;13.006;2023-04-16T11:15:17;14.50;74.20
25616;DHT22;13482;48.234;13.006;2023-04-16T11:17:50;14.50;74.70
25616;DHT22;13482;48.234;13.006;2023-04-16T11:20:23;14.60;74.90
25616;DHT22;13482;48.234;13.006;2023-04-16T11:22:56;14.60;75.20
25616;DHT22;13482;48.234;13.006;2023-04-16T11:25:28;14.80;75.10
25616;DHT22;13482;48.234;13.006;2023-04-16T11:27:57;14.90;74.90
25616;DHT22;13482;48.234;13.006;2023-04-16T11:30:29;15.00;75.20
25616;DHT22;13482;48.234;13.006;2023-04-16T11:35:38;15.40;75.40
25616;DHT22;13482;48.234;13.006;2023-04-16T11:38:06;15.60;75.10
25616;DHT22;13482;48.234;13.006;2023-04-16T11:40:33;15.80;74.70
25616;DHT22;13482;48.234;13.006;2023-04-16T11:43:15;16.00;73.50
25616;DHT22;13482;48.234;13.006;2023-04-16T11:46:00;16.10;73.20
25616;DHT22;13482;48.234;13.006;2023-04-16T11:48:53;16.30;71.70
25616;DHT22;13482;48.234;13.006;2023-04-16T11:51:25;16.40;72.30
25616;DHT22;13482;48.234;13.006;2023-04-16T11:53:52;16.40;72.60
25616;DHT22;13482;48.234;13.006;2023-04-16T11:56:29;16.50;72.50
25616;DHT22;13482;48.234;13.006;2023-04-16T11:59:09;16.60;71.60
25616;DHT22;13482;48.234;13.006;2023-04-16T12:01:39;16.70;71.40
25616;DHT22;13482;48.234;13.006;2023-04-16T12:04:08;16.70;72.10
25616;DHT22;13482;48.234;13.006;2023-04-16T12:06:35;16.80;72.30
25616;DHT22;13482;48.234;13.006;2023-04-16T12:09:23;17.00;72.50
25616;DHT22;13482;48.234;13.006;2023-04-16T12:11:51;17.10;70.30
25616;DHT22;13482;48.234;13.006;2023-04-16T12:14:19;17.20;71.20
25616;DHT22;13482;48.234;13.006;2023-04-16T12:16:47;17.30;71.20
25616;DHT22;13482;48.234;13.006;2023-04-16T12:19:15;17.40;70.90
25616;DHT22;13482;48.234;13.006;2023-04-16T12:21:46;17.50;70.80
25616;DHT22;13482;48.234;13.006;2023-04-16T12:24:17;17.60;71.10
25616;DHT22;13482;48.234;13.006;2023-04-16T12:26:53;17.80;71.00
25616;DHT22;13482;48.234;13.006;2023-04-16T12:29:29;17.90;69.90
25616;DHT22;13482;48.234;13.006;2023-04-16T12:31:56;17.90;69.10
25616;DHT22;13482;48.234;13.006;2023-04-16T12:34:23;17.90;69.30
25616;DHT22;13482;48.234;13.006;2023-04-16T12:37:11;17.90;69.40
25616;DHT22;13482;48.234;13.006;2023-04-16T12:39:39;18.00;68.90
25616;DHT22;13482;48.234;13.006;2023-04-16T12:42:06;18.00;68.90
25616;DHT22;13482;48.234;13.006;2023-04-16T12:44:35;17.90;69.10
25616;DHT22;13482;48.234;13.006;2023-04-16T12:47:02;18.00;69.10
25616;DHT22;13482;48.234;13.006;2023-04-16T12:49:31;18.00;69.00
25616;DHT22;13482;48.234;13.006;2023-04-16T12:51:58;18.00;68.30
25616;DHT22;13482;48.234;13.006;2023-04-16T12:54:25;18.00;68.50
25616;DHT22;13482;48.234;13.006;2023-04-16T12:56:55;18.00;68.30
25616;DHT22;13482;48.234;13.006;2023-04-16T12:59:23;18.00;67.30
25616;DHT22;13482;48.234;13.006;2023-04-16T13:01:51;18.00;67.70
25616;DHT22;13482;48.234;13.006;2023-04-16T13:04:18;18.00;67.80
25616;DHT22;13482;48.234;13.006;2023-04-16T13:06:49;18.00;66.80
25616;DHT22;13482;48.234;13.006;2023-04-16T13:09:16;17.90;67.70
25616;DHT22;13482;48.234;13.006;2023-04-16T13:11:46;17.90;66.90
25616;DHT22;13482;48.234;13.006;2023-04-16T13:14:13;17.80;66.90
25616;DHT22;13482;48.234;13.006;2023-04-16T13:16:40;17.80;67.00
25616;DHT22;13482;48.234;13.006;2023-04-16T13:19:07;17.80;67.50
25616;DHT22;13482;48.234;13.006;2023-04-16T13:21:35;17.80;67.50
25616;DHT22;13482;48.234;13.006;2023-04-16T13:24:02;17.80;67.70
25616;DHT22;13482;48.234;13.006;2023-04-16T13:26:30;17.80;68.00
25616;DHT22;13482;48.234;13.006;2023-04-16T13:28:57;17.90;67.90
25616;DHT22;13482;48.234;13.006;2023-04-16T13:31:24;17.90;67.70
25616;DHT22;13482;48.234;13.006;2023-04-16T13:33:54;18.00;67.50
25616;DHT22;13482;48.234;13.006;2023-04-16T13:36:22;18.00;66.70
25616;DHT22;13482;48.234;13.006;2023-04-16T13:38:53;18.00;67.40
25616;DHT22;13482;48.234;13.006;2023-04-16T13:41:20;18.00;67.70
25616;DHT22;13482;48.234;13.006;2023-04-16T13:43:50;18.10;67.80
25616;DHT22;13482;48.234;13.006;2023-04-16T13:46:25;18.10;67.10
25616;DHT22;13482;48.234;13.006;2023-04-16T13:48:52;18.10;66.90
25616;DHT22;13482;48.234;13.006;2023-04-16T13:51:20;18.10;66.60
25616;DHT22;13482;48.234;13.006;2023-04-16T13:53:48;18.10;66.40
25616;DHT22;13482;48.234;13.006;2023-04-16T13:56:15;18.10;66.40
25616;DHT22;13482;48.234;13.006;2023-04-16T13:58:44;18.10;65.80
25616;DHT22;13482;48.234;13.006;2023-04-16T14:01:11;18.00;66.00
25616;DHT22;13482;48.234;13.006;2023-04-16T14:03:38;18.00;66.30
25616;DHT22;13482;48.234;13.006;2023-04-16T14:06:06;18.00;66.10
25616;DHT22;13482;48.234;13.006;2023-04-16T14:08:34;18.00;65.80
25616;DHT22;13482;48.234;13.006;2023-04-16T14:11:05;18.00;65.80
25616;DHT22;13482;48.234;13.006;2023-04-16T14:13:32;18.00;66.30
25616;DHT22;13482;48.234;13.006;2023-04-16T14:16:00;18.00;66.40
25616;DHT22;13482;48.234;13.006;2023-04-16T14:19:01;18.10;66.30
25616;DHT22;13482;48.234;13.006;2023-04-16T14:21:47;18.10;64.90
25616;DHT22;13482;48.234;13.006;2023-04-16T14:24:19;18.10;65.90
25616;DHT22;13482;48.234;13.006;2023-04-16T14:26:47;18.10;65.60
25616;DHT22;13482;48.234;13.006;2023-04-16T14:29:15;18.00;65.40
25616;DHT22;13482;48.234;13.006;2023-04-16T14:31:42;18.00;65.20
25616;DHT22;13482;48.234;13.006;2023-04-16T14:34:09;17.90;65.40
25616;DHT22;13482;48.234;13.006;2023-04-16T14:36:37;17.80;65.50
25616;DHT22;13482;48.234;13.006;2023-04-16T14:39:08;17.80;65.80
25616;DHT22;13482;48.234;13.006;2023-04-16T14:41:38;17.80;65.90
25616;DHT22;13482;48.234;13.006;2023-04-16T14:44:06;17.70;65.60
25616;DHT22;13482;48.234;13.006;2023-04-16T14:46:34;17.70;65.20
25616;DHT22;13482;48.234;13.006;2023-04-16T14:49:01;17.60;65.70
25616;DHT22;13482;48.234;13.006;2023-04-16T14:51:29;17.60;65.90
25616;DHT22;13482;48.234;13.006;2023-04-16T14:53:57;17.50;65.70
25616;DHT22;13482;48.234;13.006;2023-04-16T14:56:24;17.50;65.90
25616;DHT22;13482;48.234;13.006;2023-04-16T14:58:51;17.40;66.10
25616;DHT22;13482;48.234;13.006;2023-04-16T15:01:19;17.40;65.70
25616;DHT22;13482;48.234;13.006;2023-04-16T15:03:46;17.40;66.00
25616;DHT22;13482;48.234;13.006;2023-04-16T15:06:14;17.40;66.20
25616;DHT22;13482;48.234;13.006;2023-04-16T15:08:42;17.40;65.80
25616;DHT22;13482;48.234;13.006;2023-04-16T15:11:09;17.40;65.90
25616;DHT22;13482;48.234;13.006;2023-04-16T15:13:36;17.50;66.00
25616;DHT22;13482;48.234;13.006;2023-04-16T15:16:04;17.50;66.10
25616;DHT22;13482;48.234;13.006;2023-04-16T15:18:32;17.50;65.70
25616;DHT22;13482;48.234;13.006;2023-04-16T15:20:59;17.50;65.10
25616;DHT22;13482;48.234;13.006;2023-04-16T15:23:26;17.50;65.50
25616;DHT22;13482;48.234;13.006;2023-04-16T15:25:53;17.50;65.80
25616;DHT22;13482;48.234;13.006;2023-04-16T15:28:21;17.50;65.80
25616;DHT22;13482;48.234;13.006;2023-04-16T15:30:48;17.50;65.70
25616;DHT22;13482;48.234;13.006;2023-04-16T15:33:15;17.50;65.50
25616;DHT22;13482;48.234;13.006;2023-04-16T15:35:42;17.50;65.60
25616;DHT22;13482;48.234;13.006;2023-04-16T15:38:10;17.50;65.50